createdAt,value
2022-08-30T09:01:19.596Z,20.60
2022-08-30T09:03:49.458Z,20.90
2022-08-30T09:06:54.077Z,21.20
2022-08-30T09:09:35.904Z,21.40
2022-08-30T09:12:05.452Z,21.80
2022-08-30T09:14:46.092Z,22.00
2022-08-30T09:17:21.784Z,22.10
2022-08-30T09:19:52.508Z,22.30
2022-08-30T09:22:31.633Z,22.50
2022-08-30T09:25:32.831Z,22.50
2022-08-30T09:28:13.901Z,22.50
2022-08-30T09:31:12.426Z,22.40
2022-08-30T09:33:40.539Z,22.30
2022-08-30T09:36:27.661Z,22.20
2022-08-30T09:39:14.133Z,22.10
2022-08-30T09:41:47.141Z,21.90
2022-08-30T09:44:23.576Z,21.90
2022-08-30T09:46:59.964Z,21.80
2022-08-30T09:49:42.294Z,21.60
2022-08-30T09:52:38.829Z,21.50
2022-08-30T09:55:37.018Z,21.40
2022-08-30T09:58:25.675Z,21.40
2022-08-30T10:01:27.966Z,21.30
2022-08-30T10:04:23.099Z,21.40
2022-08-30T10:06:58.992Z,21.30
2022-08-30T10:09:50.289Z,21.30
2022-08-30T10:12:27.841Z,21.30
2022-08-30T10:15:09.139Z,21.40
2022-08-30T10:17:58.493Z,21.40
2022-08-30T10:20:44.819Z,21.40
2022-08-30T10:23:44.204Z,21.50
2022-08-30T10:26:21.713Z,21.60
2022-08-30T10:28:59.007Z,21.70
2022-08-30T10:32:04.940Z,21.70
2022-08-30T10:34:40.319Z,21.90
2022-08-30T10:37:28.330Z,22.00
2022-08-30T10:40:29.034Z,22.10
2022-08-30T10:43:02.289Z,22.30
2022-08-30T10:45:39.157Z,22.60
2022-08-30T10:48:25.787Z,22.80
2022-08-30T10:50:59.435Z,23.10
2022-08-30T10:53:43.709Z,23.40
2022-08-30T10:56:20.587Z,23.60
2022-08-30T10:58:49.427Z,24.00
2022-08-30T11:01:36.665Z,24.40
2022-08-30T11:04:45.421Z,25.10
2022-08-30T11:07:45.110Z,25.80
2022-08-30T11:10:49.542Z,26.30
2022-08-30T11:13:45.528Z,27.00
2022-08-30T11:16:36.773Z,27.40
2022-08-30T11:19:45.171Z,27.80
2022-08-30T11:22:25.931Z,28.20
2022-08-30T11:25:11.970Z,28.40
2022-08-30T11:28:00.167Z,28.30
2022-08-30T11:30:28.540Z,28.00
2022-08-30T11:33:13.730Z,27.80
2022-08-30T11:35:52.883Z,27.50
2022-08-30T11:38:41.419Z,27.30
2022-08-30T11:41:45.590Z,27.20
2022-08-30T11:44:32.085Z,27.10
2022-08-30T11:47:05.042Z,27.00
2022-08-30T11:49:47.739Z,27.00
2022-08-30T11:52:56.398Z,27.10
2022-08-30T11:55:56.597Z,27.00
2022-08-30T11:58:51.015Z,27.60
2022-08-30T12:01:50.252Z,28.60
2022-08-30T12:04:17.199Z,29.40
2022-08-30T12:06:57.261Z,29.90
2022-08-30T12:09:25.838Z,30.80
2022-08-30T12:11:59.853Z,31.70
2022-08-30T12:14:52.864Z,32.00
2022-08-30T12:18:01.628Z,32.50
2022-08-30T12:20:44.854Z,33.00
2022-08-30T12:23:27.999Z,33.70
2022-08-30T12:26:26.280Z,33.60
2022-08-30T13:20:05.777Z,31.40
2022-08-30T13:23:07.071Z,31.90
2022-08-30T13:25:37.118Z,33.00
2022-08-30T13:28:07.855Z,34.20
2022-08-30T13:30:36.789Z,35.40
2022-08-30T13:33:04.558Z,36.00
2022-08-30T13:35:34.065Z,36.00
2022-08-30T13:38:03.055Z,35.90
2022-08-30T13:40:30.944Z,35.30
2022-08-30T13:42:58.977Z,34.60
2022-08-30T13:45:43.036Z,33.60
2022-08-30T13:48:12.102Z,32.90
2022-08-30T13:50:40.948Z,32.30
2022-08-30T13:53:12.158Z,31.80
2022-08-30T13:55:41.766Z,31.30
2022-08-30T13:58:14.830Z,30.70
2022-08-30T14:00:44.263Z,30.20
2022-08-30T14:03:13.754Z,29.80
2022-08-30T14:06:05.311Z,29.30
2022-08-30T14:08:49.366Z,28.90
2022-08-30T14:11:23.026Z,28.50
2022-08-30T14:16:44.977Z,28.20
2022-08-30T14:19:16.076Z,28.10
2022-08-30T14:21:49.026Z,28.00
2022-08-30T14:24:20.072Z,27.90
2022-08-30T14:26:51.651Z,27.80
2022-08-30T14:29:25.104Z,27.60
2022-08-30T14:31:55.266Z,27.50
2022-08-30T14:34:23.358Z,27.50
2022-08-30T14:36:51.166Z,27.30
2022-08-30T14:39:21.139Z,27.20
2022-08-30T14:41:54.400Z,27.00
2022-08-30T14:44:25.779Z,26.90
2022-08-30T14:46:54.551Z,26.90
2022-08-30T14:49:23.250Z,27.20
2022-08-30T14:51:52.610Z,28.10
2022-08-30T14:54:25.716Z,29.10
2022-08-30T14:56:54.883Z,30.10
2022-08-30T14:59:24.736Z,30.80
2022-08-30T15:01:53.562Z,31.40
2022-08-30T15:04:21.821Z,31.80
2022-08-30T15:06:50.973Z,32.20
2022-08-30T15:09:23.860Z,32.70
2022-08-30T15:11:59.856Z,33.00
2022-08-30T15:14:29.622Z,33.10
2022-08-30T15:19:27.080Z,32.80
2022-08-30T15:21:54.956Z,32.40
2022-08-30T15:24:27.608Z,31.90
2022-08-30T15:27:00.075Z,31.50
2022-08-30T15:29:30.543Z,31.10
2022-08-30T15:32:02.858Z,30.70
2022-08-30T15:34:32.133Z,30.20
2022-08-30T15:37:00.029Z,29.80
2022-08-30T15:39:27.597Z,29.40
2022-08-30T15:42:00.735Z,29.10
2022-08-30T15:44:31.509Z,28.80
2022-08-30T15:47:00.060Z,28.50
2022-08-30T15:49:28.729Z,28.20
2022-08-30T15:52:02.450Z,28.00
2022-08-30T15:54:31.254Z,27.80
2022-08-30T15:57:01.826Z,27.60
2022-08-30T15:59:30.998Z,27.50
2022-08-30T16:01:59.321Z,27.30
2022-08-30T16:04:33.029Z,27.20
2022-08-30T16:07:03.743Z,27.10
2022-08-30T16:09:32.891Z,27.00
2022-08-30T16:12:02.163Z,27.00
2022-08-30T16:14:29.804Z,26.90
2022-08-30T16:16:57.982Z,26.80
2022-08-30T16:19:26.876Z,26.60
2022-08-30T16:21:54.826Z,26.50
2022-08-30T16:24:23.561Z,26.40
2022-08-30T16:26:51.667Z,26.30
2022-08-30T16:29:19.889Z,26.20
2022-08-30T16:31:49.099Z,26.10
2022-08-30T16:34:20.114Z,25.90
2022-08-30T16:36:48.569Z,25.80
2022-08-30T16:39:16.384Z,25.60
2022-08-30T16:41:45.665Z,25.40
2022-08-30T16:44:15.993Z,25.20
2022-08-30T16:46:53.079Z,24.90
2022-08-30T16:49:24.870Z,24.60
2022-08-30T16:51:54.133Z,24.40
2022-08-30T16:54:23.067Z,24.20
